sensor_id;sensor_type;location;lat;lon;timestamp;P1;durP1;ratioP1;P2;durP2;ratioP2
49175;SDS011;35012;47.200;9.748;2023-06-22T00:01:58;11.90;;;5.67;;
49175;SDS011;35012;47.200;9.748;2023-06-22T00:04:24;12.93;;;6.03;;
49175;SDS011;35012;47.200;9.748;2023-06-22T00:06:50;11.10;;;5.60;;
49175;SDS011;35012;47.200;9.748;2023-06-22T00:09:15;9.93;;;5.43;;
49175;SDS011;35012;47.200;9.748;2023-06-22T00:11:41;10.27;;;5.40;;
49175;SDS011;35012;47.200;9.748;2023-06-22T00:14:06;14.33;;;6.13;;
49175;SDS011;35012;47.200;9.748;2023-06-22T00:16:32;11.57;;;5.50;;
49175;SDS011;35012;47.200;9.748;2023-06-22T00:18:58;10.77;;;6.00;;
49175;SDS011;35012;47.200;9.748;2023-06-22T00:21:29;10.30;;;5.60;;
49175;SDS011;35012;47.200;9.748;2023-06-22T00:23:55;12.77;;;6.00;;
49175;SDS011;35012;47.200;9.748;2023-06-22T00:26:20;13.80;;;5.77;;
49175;SDS011;35012;47.200;9.748;2023-06-22T00:28:46;14.30;;;5.70;;
49175;SDS011;35012;47.200;9.748;2023-06-22T00:31:12;13.37;;;5.30;;
49175;SDS011;35012;47.200;9.748;2023-06-22T00:33:38;16.60;;;5.67;;
49175;SDS011;35012;47.200;9.748;2023-06-22T00:36:03;11.50;;;5.87;;
49175;SDS011;35012;47.200;9.748;2023-06-22T00:38:29;10.77;;;5.73;;
49175;SDS011;35012;47.200;9.748;2023-06-22T00:40:55;12.17;;;5.30;;
49175;SDS011;35012;47.200;9.748;2023-06-22T00:43:20;15.53;;;5.30;;
49175;SDS011;35012;47.200;9.748;2023-06-22T00:45:46;9.57;;;5.67;;
49175;SDS011;35012;47.200;9.748;2023-06-22T00:48:12;8.30;;;5.50;;
49175;SDS011;35012;47.200;9.748;2023-06-22T00:50:38;9.77;;;5.53;;
49175;SDS011;35012;47.200;9.748;2023-06-22T00:53:05;9.57;;;5.37;;
49175;SDS011;35012;47.200;9.748;2023-06-22T00:55:36;10.27;;;5.30;;
49175;SDS011;35012;47.200;9.748;2023-06-22T00:58:04;12.70;;;5.30;;
49175;SDS011;35012;47.200;9.748;2023-06-22T01:00:33;10.33;;;4.90;;
49175;SDS011;35012;47.200;9.748;2023-06-22T01:02:59;10.23;;;5.23;;
49175;SDS011;35012;47.200;9.748;2023-06-22T01:05:24;13.07;;;5.33;;
49175;SDS011;35012;47.200;9.748;2023-06-22T01:13:04;11.73;;;5.20;;
49175;SDS011;35012;47.200;9.748;2023-06-22T01:16:02;11.13;;;5.33;;
49175;SDS011;35012;47.200;9.748;2023-06-22T01:18:30;14.93;;;5.10;;
49175;SDS011;35012;47.200;9.748;2023-06-22T01:20:58;11.13;;;5.47;;
49175;SDS011;35012;47.200;9.748;2023-06-22T01:28:44;14.17;;;5.60;;
49175;SDS011;35012;47.200;9.748;2023-06-22T01:31:11;13.40;;;5.70;;
49175;SDS011;35012;47.200;9.748;2023-06-22T01:33:39;13.37;;;6.03;;
49175;SDS011;35012;47.200;9.748;2023-06-22T01:36:07;9.40;;;5.30;;
49175;SDS011;35012;47.200;9.748;2023-06-22T01:38:34;11.50;;;5.23;;
49175;SDS011;35012;47.200;9.748;2023-06-22T01:41:01;13.80;;;5.30;;
49175;SDS011;35012;47.200;9.748;2023-06-22T01:43:27;14.77;;;4.93;;
49175;SDS011;35012;47.200;9.748;2023-06-22T01:45:56;12.00;;;5.33;;
49175;SDS011;35012;47.200;9.748;2023-06-22T01:48:22;10.73;;;5.27;;
49175;SDS011;35012;47.200;9.748;2023-06-22T01:50:48;13.43;;;5.10;;
49175;SDS011;35012;47.200;9.748;2023-06-22T01:53:14;13.93;;;5.27;;
49175;SDS011;35012;47.200;9.748;2023-06-22T01:55:40;14.30;;;4.63;;
49175;SDS011;35012;47.200;9.748;2023-06-22T01:58:05;10.80;;;4.73;;
49175;SDS011;35012;47.200;9.748;2023-06-22T02:00:35;13.07;;;4.83;;
49175;SDS011;35012;47.200;9.748;2023-06-22T02:03:08;11.50;;;5.33;;
49175;SDS011;35012;47.200;9.748;2023-06-22T02:05:39;12.03;;;5.63;;
49175;SDS011;35012;47.200;9.748;2023-06-22T02:08:22;13.00;;;4.53;;
49175;SDS011;35012;47.200;9.748;2023-06-22T02:10:51;19.80;;;4.90;;
49175;SDS011;35012;47.200;9.748;2023-06-22T02:13:17;14.10;;;5.60;;
49175;SDS011;35012;47.200;9.748;2023-06-22T02:15:43;11.70;;;5.50;;
49175;SDS011;35012;47.200;9.748;2023-06-22T02:18:09;13.47;;;4.67;;
49175;SDS011;35012;47.200;9.748;2023-06-22T02:20:38;13.57;;;4.93;;
49175;SDS011;35012;47.200;9.748;2023-06-22T02:23:04;9.17;;;4.80;;
49175;SDS011;35012;47.200;9.748;2023-06-22T02:25:30;14.53;;;4.77;;
49175;SDS011;35012;47.200;9.748;2023-06-22T02:27:57;14.00;;;4.73;;
49175;SDS011;35012;47.200;9.748;2023-06-22T02:30:22;12.23;;;5.57;;
49175;SDS011;35012;47.200;9.748;2023-06-22T02:32:48;11.93;;;4.83;;
49175;SDS011;35012;47.200;9.748;2023-06-22T02:35:13;14.93;;;5.47;;
49175;SDS011;35012;47.200;9.748;2023-06-22T02:37:39;12.23;;;4.77;;
49175;SDS011;35012;47.200;9.748;2023-06-22T02:40:07;15.13;;;5.10;;
49175;SDS011;35012;47.200;9.748;2023-06-22T02:42:37;13.80;;;4.73;;
49175;SDS011;35012;47.200;9.748;2023-06-22T02:45:05;10.73;;;4.53;;
49175;SDS011;35012;47.200;9.748;2023-06-22T02:47:31;11.40;;;4.43;;
49175;SDS011;35012;47.200;9.748;2023-06-22T02:49:56;9.33;;;4.33;;
49175;SDS011;35012;47.200;9.748;2023-06-22T02:52:22;13.33;;;4.87;;
49175;SDS011;35012;47.200;9.748;2023-06-22T02:54:47;11.60;;;4.13;;
49175;SDS011;35012;47.200;9.748;2023-06-22T02:57:13;15.27;;;5.40;;
49175;SDS011;35012;47.200;9.748;2023-06-22T02:59:39;13.27;;;4.63;;
49175;SDS011;35012;47.200;9.748;2023-06-22T03:02:07;12.43;;;4.80;;
49175;SDS011;35012;47.200;9.748;2023-06-22T03:04:33;14.37;;;4.70;;
49175;SDS011;35012;47.200;9.748;2023-06-22T03:06:59;13.33;;;4.40;;
49175;SDS011;35012;47.200;9.748;2023-06-22T03:09:26;12.30;;;4.57;;
49175;SDS011;35012;47.200;9.748;2023-06-22T03:11:55;14.50;;;4.70;;
49175;SDS011;35012;47.200;9.748;2023-06-22T03:14:21;14.50;;;5.10;;
49175;SDS011;35012;47.200;9.748;2023-06-22T03:16:47;12.73;;;5.00;;
49175;SDS011;35012;47.200;9.748;2023-06-22T03:19:12;13.57;;;5.03;;
49175;SDS011;35012;47.200;9.748;2023-06-22T03:21:38;17.83;;;4.90;;
49175;SDS011;35012;47.200;9.748;2023-06-22T03:24:05;13.33;;;4.53;;
49175;SDS011;35012;47.200;9.748;2023-06-22T03:26:31;12.57;;;4.70;;
49175;SDS011;35012;47.200;9.748;2023-06-22T03:28:57;13.73;;;4.57;;
49175;SDS011;35012;47.200;9.748;2023-06-22T03:31:22;12.07;;;4.47;;
49175;SDS011;35012;47.200;9.748;2023-06-22T03:33:48;13.67;;;5.20;;
49175;SDS011;35012;47.200;9.748;2023-06-22T03:36:15;13.47;;;4.67;;
49175;SDS011;35012;47.200;9.748;2023-06-22T03:38:44;18.43;;;5.20;;
49175;SDS011;35012;47.200;9.748;2023-06-22T03:41:11;15.77;;;4.80;;
49175;SDS011;35012;47.200;9.748;2023-06-22T03:43:36;11.40;;;5.03;;
49175;SDS011;35012;47.200;9.748;2023-06-22T03:46:02;14.23;;;5.47;;
49175;SDS011;35012;47.200;9.748;2023-06-22T03:48:27;11.47;;;5.47;;
49175;SDS011;35012;47.200;9.748;2023-06-22T03:50:53;13.40;;;5.40;;
49175;SDS011;35012;47.200;9.748;2023-06-22T03:53:18;12.50;;;5.07;;
49175;SDS011;35012;47.200;9.748;2023-06-22T03:55:50;14.30;;;4.93;;
49175;SDS011;35012;47.200;9.748;2023-06-22T03:58:17;13.47;;;4.80;;
49175;SDS011;35012;47.200;9.748;2023-06-22T04:00:46;12.70;;;4.70;;
49175;SDS011;35012;47.200;9.748;2023-06-22T04:03:12;13.73;;;5.17;;
49175;SDS011;35012;47.200;9.748;2023-06-22T04:05:38;14.97;;;5.50;;
49175;SDS011;35012;47.200;9.748;2023-06-22T04:08:04;13.30;;;5.23;;
49175;SDS011;35012;47.200;9.748;2023-06-22T04:10:30;13.53;;;5.30;;
49175;SDS011;35012;47.200;9.748;2023-06-22T04:12:56;10.00;;;4.90;;
49175;SDS011;35012;47.200;9.748;2023-06-22T04:15:21;14.70;;;5.33;;
49175;SDS011;35012;47.200;9.748;2023-06-22T04:17:47;11.90;;;5.30;;
49175;SDS011;35012;47.200;9.748;2023-06-22T04:20:12;12.33;;;4.97;;
49175;SDS011;35012;47.200;9.748;2023-06-22T04:22:38;13.73;;;5.07;;
49175;SDS011;35012;47.200;9.748;2023-06-22T04:25:06;11.13;;;5.00;;
49175;SDS011;35012;47.200;9.748;2023-06-22T04:27:32;12.50;;;5.47;;
49175;SDS011;35012;47.200;9.748;2023-06-22T04:30:05;13.83;;;5.37;;
49175;SDS011;35012;47.200;9.748;2023-06-22T04:32:34;13.83;;;5.90;;
49175;SDS011;35012;47.200;9.748;2023-06-22T04:35:03;12.70;;;5.43;;
49175;SDS011;35012;47.200;9.748;2023-06-22T04:37:32;12.83;;;5.93;;
49175;SDS011;35012;47.200;9.748;2023-06-22T04:39:58;15.87;;;6.03;;
49175;SDS011;35012;47.200;9.748;2023-06-22T04:42:27;12.63;;;5.90;;
49175;SDS011;35012;47.200;9.748;2023-06-22T04:44:52;14.93;;;5.50;;
49175;SDS011;35012;47.200;9.748;2023-06-22T04:47:18;12.13;;;5.77;;
49175;SDS011;35012;47.200;9.748;2023-06-22T04:49:44;11.53;;;6.07;;
49175;SDS011;35012;47.200;9.748;2023-06-22T04:52:12;15.27;;;5.83;;
49175;SDS011;35012;47.200;9.748;2023-06-22T04:54:38;13.07;;;6.53;;
49175;SDS011;35012;47.200;9.748;2023-06-22T04:57:06;12.40;;;6.13;;
49175;SDS011;35012;47.200;9.748;2023-06-22T04:59:36;12.40;;;6.23;;
49175;SDS011;35012;47.200;9.748;2023-06-22T05:02:03;10.77;;;5.73;;
49175;SDS011;35012;47.200;9.748;2023-06-22T05:04:29;16.53;;;6.07;;
49175;SDS011;35012;47.200;9.748;2023-06-22T05:07:01;14.80;;;5.83;;
49175;SDS011;35012;47.200;9.748;2023-06-22T05:09:27;13.03;;;5.40;;
49175;SDS011;35012;47.200;9.748;2023-06-22T05:11:53;12.70;;;5.70;;
49175;SDS011;35012;47.200;9.748;2023-06-22T05:14:19;13.50;;;6.13;;
49175;SDS011;35012;47.200;9.748;2023-06-22T05:16:45;14.60;;;5.87;;
49175;SDS011;35012;47.200;9.748;2023-06-22T05:19:11;12.23;;;5.97;;
49175;SDS011;35012;47.200;9.748;2023-06-22T05:21:37;15.37;;;5.70;;
49175;SDS011;35012;47.200;9.748;2023-06-22T05:24:02;14.43;;;5.73;;
49175;SDS011;35012;47.200;9.748;2023-06-22T05:26:29;17.10;;;5.40;;
49175;SDS011;35012;47.200;9.748;2023-06-22T05:28:55;16.07;;;6.17;;
49175;SDS011;35012;47.200;9.748;2023-06-22T05:31:21;14.60;;;5.53;;
49175;SDS011;35012;47.200;9.748;2023-06-22T05:33:47;16.70;;;5.80;;
49175;SDS011;35012;47.200;9.748;2023-06-22T05:36:14;14.13;;;5.97;;
49175;SDS011;35012;47.200;9.748;2023-06-22T05:38:40;11.53;;;5.50;;
49175;SDS011;35012;47.200;9.748;2023-06-22T05:41:06;11.73;;;5.00;;
49175;SDS011;35012;47.200;9.748;2023-06-22T05:43:31;14.83;;;5.80;;
49175;SDS011;35012;47.200;9.748;2023-06-22T05:45:57;13.03;;;5.70;;
49175;SDS011;35012;47.200;9.748;2023-06-22T05:48:23;15.10;;;5.43;;
49175;SDS011;35012;47.200;9.748;2023-06-22T05:50:49;10.60;;;5.50;;
49175;SDS011;35012;47.200;9.748;2023-06-22T05:53:14;14.47;;;5.43;;
49175;SDS011;35012;47.200;9.748;2023-06-22T05:55:40;15.30;;;5.30;;
49175;SDS011;35012;47.200;9.748;2023-06-22T05:58:06;16.00;;;5.27;;
49175;SDS011;35012;47.200;9.748;2023-06-22T06:00:32;13.20;;;5.97;;
49175;SDS011;35012;47.200;9.748;2023-06-22T06:02:57;14.00;;;5.60;;
49175;SDS011;35012;47.200;9.748;2023-06-22T06:05:29;16.20;;;5.63;;
49175;SDS011;35012;47.200;9.748;2023-06-22T06:07:57;11.87;;;5.53;;
49175;SDS011;35012;47.200;9.748;2023-06-22T06:10:23;11.63;;;5.43;;
49175;SDS011;35012;47.200;9.748;2023-06-22T06:12:49;16.47;;;5.63;;
49175;SDS011;35012;47.200;9.748;2023-06-22T06:15:14;14.50;;;5.67;;
49175;SDS011;35012;47.200;9.748;2023-06-22T06:17:47;16.70;;;5.70;;
49175;SDS011;35012;47.200;9.748;2023-06-22T06:20:13;13.37;;;5.33;;
49175;SDS011;35012;47.200;9.748;2023-06-22T06:22:38;14.73;;;5.70;;
49175;SDS011;35012;47.200;9.748;2023-06-22T06:25:04;13.93;;;5.70;;
49175;SDS011;35012;47.200;9.748;2023-06-22T06:27:30;14.00;;;5.43;;
49175;SDS011;35012;47.200;9.748;2023-06-22T06:29:56;12.17;;;5.13;;
49175;SDS011;35012;47.200;9.748;2023-06-22T06:32:22;15.10;;;5.90;;
49175;SDS011;35012;47.200;9.748;2023-06-22T06:34:47;12.73;;;6.05;;
49175;SDS011;35012;47.200;9.748;2023-06-22T06:37:13;17.87;;;5.87;;
49175;SDS011;35012;47.200;9.748;2023-06-22T06:39:38;15.13;;;6.03;;
49175;SDS011;35012;47.200;9.748;2023-06-22T06:42:04;13.07;;;5.40;;
49175;SDS011;35012;47.200;9.748;2023-06-22T06:44:30;12.23;;;5.00;;
49175;SDS011;35012;47.200;9.748;2023-06-22T06:46:56;16.37;;;5.37;;
49175;SDS011;35012;47.200;9.748;2023-06-22T06:49:21;12.93;;;5.53;;
49175;SDS011;35012;47.200;9.748;2023-06-22T06:51:47;10.77;;;5.27;;
49175;SDS011;35012;47.200;9.748;2023-06-22T06:54:12;12.57;;;5.53;;
49175;SDS011;35012;47.200;9.748;2023-06-22T06:56:37;11.80;;;5.30;;
49175;SDS011;35012;47.200;9.748;2023-06-22T06:59:03;18.00;;;6.07;;
49175;SDS011;35012;47.200;9.748;2023-06-22T07:01:29;17.70;;;5.70;;
49175;SDS011;35012;47.200;9.748;2023-06-22T07:03:58;15.43;;;5.33;;
49175;SDS011;35012;47.200;9.748;2023-06-22T07:06:25;15.03;;;4.90;;
49175;SDS011;35012;47.200;9.748;2023-06-22T07:08:54;11.77;;;5.50;;
49175;SDS011;35012;47.200;9.748;2023-06-22T07:11:20;15.67;;;5.80;;
49175;SDS011;35012;47.200;9.748;2023-06-22T07:13:46;11.50;;;5.17;;
49175;SDS011;35012;47.200;9.748;2023-06-22T07:16:11;12.43;;;4.85;;
49175;SDS011;35012;47.200;9.748;2023-06-22T07:18:39;15.70;;;5.03;;
49175;SDS011;35012;47.200;9.748;2023-06-22T07:21:04;14.83;;;5.40;;
49175;SDS011;35012;47.200;9.748;2023-06-22T07:23:31;12.17;;;5.40;;
49175;SDS011;35012;47.200;9.748;2023-06-22T07:25:57;16.43;;;5.57;;
49175;SDS011;35012;47.200;9.748;2023-06-22T07:28:26;15.27;;;5.57;;
49175;SDS011;35012;47.200;9.748;2023-06-22T07:30:52;11.00;;;5.40;;
49175;SDS011;35012;47.200;9.748;2023-06-22T07:33:18;16.63;;;5.68;;
49175;SDS011;35012;47.200;9.748;2023-06-22T07:35:44;14.10;;;5.20;;
49175;SDS011;35012;47.200;9.748;2023-06-22T07:38:10;16.25;;;5.28;;
49175;SDS011;35012;47.200;9.748;2023-06-22T07:40:36;14.63;;;5.70;;
49175;SDS011;35012;47.200;9.748;2023-06-22T07:43:02;10.07;;;5.23;;
49175;SDS011;35012;47.200;9.748;2023-06-22T07:45:28;10.27;;;4.70;;
49175;SDS011;35012;47.200;9.748;2023-06-22T07:47:54;14.17;;;5.27;;
49175;SDS011;35012;47.200;9.748;2023-06-22T07:50:20;13.60;;;5.85;;
49175;SDS011;35012;47.200;9.748;2023-06-22T07:52:45;10.82;;;5.57;;
49175;SDS011;35012;47.200;9.748;2023-06-22T07:55:12;18.40;;;5.68;;
49175;SDS011;35012;47.200;9.748;2023-06-22T07:57:38;15.77;;;5.60;;
49175;SDS011;35012;47.200;9.748;2023-06-22T08:00:04;16.48;;;4.82;;
49175;SDS011;35012;47.200;9.748;2023-06-22T08:02:41;11.43;;;4.78;;
49175;SDS011;35012;47.200;9.748;2023-06-22T08:05:07;10.43;;;5.20;;
49175;SDS011;35012;47.200;9.748;2023-06-22T08:07:34;12.23;;;5.43;;
49175;SDS011;35012;47.200;9.748;2023-06-22T08:10:02;16.15;;;5.28;;
49175;SDS011;35012;47.200;9.748;2023-06-22T08:12:27;13.95;;;5.82;;
49175;SDS011;35012;47.200;9.748;2023-06-22T08:14:53;14.93;;;5.57;;
49175;SDS011;35012;47.200;9.748;2023-06-22T08:17:18;17.50;;;5.63;;
49175;SDS011;35012;47.200;9.748;2023-06-22T08:19:44;16.88;;;5.70;;
49175;SDS011;35012;47.200;9.748;2023-06-22T08:22:09;19.85;;;5.95;;
49175;SDS011;35012;47.200;9.748;2023-06-22T08:24:35;16.13;;;6.03;;
49175;SDS011;35012;47.200;9.748;2023-06-22T08:27:00;12.98;;;5.63;;
49175;SDS011;35012;47.200;9.748;2023-06-22T08:29:26;17.35;;;6.28;;
49175;SDS011;35012;47.200;9.748;2023-06-22T08:31:51;12.82;;;5.47;;
49175;SDS011;35012;47.200;9.748;2023-06-22T08:34:17;20.10;;;5.72;;
49175;SDS011;35012;47.200;9.748;2023-06-22T08:36:47;13.15;;;5.53;;
49175;SDS011;35012;47.200;9.748;2023-06-22T08:39:18;12.40;;;5.30;;
49175;SDS011;35012;47.200;9.748;2023-06-22T08:41:47;15.57;;;5.30;;
49175;SDS011;35012;47.200;9.748;2023-06-22T08:44:13;17.20;;;5.57;;
49175;SDS011;35012;47.200;9.748;2023-06-22T08:46:38;16.05;;;5.07;;
49175;SDS011;35012;47.200;9.748;2023-06-22T08:49:05;17.90;;;5.70;;
49175;SDS011;35012;47.200;9.748;2023-06-22T08:51:31;18.08;;;5.60;;
49175;SDS011;35012;47.200;9.748;2023-06-22T08:53:57;16.58;;;5.40;;
49175;SDS011;35012;47.200;9.748;2023-06-22T08:56:22;13.90;;;5.25;;
49175;SDS011;35012;47.200;9.748;2023-06-22T08:58:48;13.40;;;5.30;;
49175;SDS011;35012;47.200;9.748;2023-06-22T09:01:14;10.60;;;4.70;;
49175;SDS011;35012;47.200;9.748;2023-06-22T09:03:41;13.20;;;5.28;;
49175;SDS011;35012;47.200;9.748;2023-06-22T09:06:07;13.43;;;5.13;;
49175;SDS011;35012;47.200;9.748;2023-06-22T09:08:34;13.80;;;5.38;;
49175;SDS011;35012;47.200;9.748;2023-06-22T09:11:00;13.57;;;5.15;;
49175;SDS011;35012;47.200;9.748;2023-06-22T09:13:26;11.70;;;5.05;;
49175;SDS011;35012;47.200;9.748;2023-06-22T09:15:53;14.82;;;5.85;;
49175;SDS011;35012;47.200;9.748;2023-06-22T09:18:19;15.23;;;5.25;;
49175;SDS011;35012;47.200;9.748;2023-06-22T09:20:45;13.57;;;5.28;;
49175;SDS011;35012;47.200;9.748;2023-06-22T09:23:10;17.27;;;5.65;;
49175;SDS011;35012;47.200;9.748;2023-06-22T09:25:36;18.08;;;5.55;;
49175;SDS011;35012;47.200;9.748;2023-06-22T09:28:02;14.68;;;5.40;;
49175;SDS011;35012;47.200;9.748;2023-06-22T09:30:27;21.73;;;6.28;;
49175;SDS011;35012;47.200;9.748;2023-06-22T09:32:53;15.23;;;6.00;;
49175;SDS011;35012;47.200;9.748;2023-06-22T09:35:19;16.63;;;5.82;;
49175;SDS011;35012;47.200;9.748;2023-06-22T09:37:45;14.68;;;5.60;;
49175;SDS011;35012;47.200;9.748;2023-06-22T09:40:11;15.32;;;5.80;;
49175;SDS011;35012;47.200;9.748;2023-06-22T09:42:38;12.57;;;5.40;;
49175;SDS011;35012;47.200;9.748;2023-06-22T09:45:04;13.50;;;5.45;;
49175;SDS011;35012;47.200;9.748;2023-06-22T09:47:30;13.23;;;5.63;;
49175;SDS011;35012;47.200;9.748;2023-06-22T09:49:56;12.70;;;5.57;;
49175;SDS011;35012;47.200;9.748;2023-06-22T09:52:21;14.98;;;5.38;;
49175;SDS011;35012;47.200;9.748;2023-06-22T09:54:47;14.15;;;5.30;;
49175;SDS011;35012;47.200;9.748;2023-06-22T09:57:13;13.27;;;5.25;;
49175;SDS011;35012;47.200;9.748;2023-06-22T09:59:39;15.55;;;6.13;;
49175;SDS011;35012;47.200;9.748;2023-06-22T10:02:05;13.15;;;5.93;;
49175;SDS011;35012;47.200;9.748;2023-06-22T10:04:32;12.77;;;5.88;;
49175;SDS011;35012;47.200;9.748;2023-06-22T10:06:57;15.23;;;5.57;;
49175;SDS011;35012;47.200;9.748;2023-06-22T10:09:23;14.30;;;5.03;;
49175;SDS011;35012;47.200;9.748;2023-06-22T10:11:49;14.35;;;5.43;;
49175;SDS011;35012;47.200;9.748;2023-06-22T10:14:14;13.35;;;5.65;;
49175;SDS011;35012;47.200;9.748;2023-06-22T10:16:40;14.63;;;5.65;;
49175;SDS011;35012;47.200;9.748;2023-06-22T10:19:06;14.25;;;5.72;;
49175;SDS011;35012;47.200;9.748;2023-06-22T10:21:32;14.45;;;6.22;;
49175;SDS011;35012;47.200;9.748;2023-06-22T10:23:58;12.52;;;5.72;;
49175;SDS011;35012;47.200;9.748;2023-06-22T10:26:24;12.55;;;5.70;;
49175;SDS011;35012;47.200;9.748;2023-06-22T10:28:50;11.90;;;6.10;;
49175;SDS011;35012;47.200;9.748;2023-06-22T10:31:15;13.20;;;5.97;;
49175;SDS011;35012;47.200;9.748;2023-06-22T10:33:41;15.90;;;6.35;;
49175;SDS011;35012;47.200;9.748;2023-06-22T10:36:09;11.68;;;5.30;;
49175;SDS011;35012;47.200;9.748;2023-06-22T10:38:35;14.35;;;6.15;;
49175;SDS011;35012;47.200;9.748;2023-06-22T10:41:01;12.82;;;6.15;;
49175;SDS011;35012;47.200;9.748;2023-06-22T10:43:27;14.25;;;6.05;;
49175;SDS011;35012;47.200;9.748;2023-06-22T10:45:53;11.10;;;5.57;;
49175;SDS011;35012;47.200;9.748;2023-06-22T10:48:18;13.35;;;6.03;;
49175;SDS011;35012;47.200;9.748;2023-06-22T10:50:44;11.73;;;5.88;;
49175;SDS011;35012;47.200;9.748;2023-06-22T10:53:12;11.70;;;6.03;;
49175;SDS011;35012;47.200;9.748;2023-06-22T10:55:38;13.77;;;6.05;;
49175;SDS011;35012;47.200;9.748;2023-06-22T10:58:03;10.38;;;5.85;;
49175;SDS011;35012;47.200;9.748;2023-06-22T11:00:29;13.00;;;6.80;;
49175;SDS011;35012;47.200;9.748;2023-06-22T11:02:54;11.25;;;6.00;;
49175;SDS011;35012;47.200;9.748;2023-06-22T11:05:20;16.85;;;5.53;;
49175;SDS011;35012;47.200;9.748;2023-06-22T11:07:46;14.77;;;5.97;;
49175;SDS011;35012;47.200;9.748;2023-06-22T11:10:13;11.13;;;5.72;;
49175;SDS011;35012;47.200;9.748;2023-06-22T11:12:38;12.27;;;5.97;;
49175;SDS011;35012;47.200;9.748;2023-06-22T11:15:04;15.90;;;6.38;;
49175;SDS011;35012;47.200;9.748;2023-06-22T11:17:30;15.23;;;6.03;;
49175;SDS011;35012;47.200;9.748;2023-06-22T11:19:55;12.77;;;6.53;;
49175;SDS011;35012;47.200;9.748;2023-06-22T11:22:21;11.25;;;6.25;;
49175;SDS011;35012;47.200;9.748;2023-06-22T11:24:47;13.18;;;6.82;;
49175;SDS011;35012;47.200;9.748;2023-06-22T11:27:13;10.95;;;6.20;;
49175;SDS011;35012;47.200;9.748;2023-06-22T11:29:38;14.10;;;6.00;;
49175;SDS011;35012;47.200;9.748;2023-06-22T11:32:05;11.85;;;6.25;;
49175;SDS011;35012;47.200;9.748;2023-06-22T11:34:32;13.38;;;5.88;;
49175;SDS011;35012;47.200;9.748;2023-06-22T11:36:57;13.82;;;6.47;;
49175;SDS011;35012;47.200;9.748;2023-06-22T11:39:23;15.98;;;6.60;;
49175;SDS011;35012;47.200;9.748;2023-06-22T11:41:48;13.82;;;6.78;;
49175;SDS011;35012;47.200;9.748;2023-06-22T11:44:14;13.90;;;6.70;;
49175;SDS011;35012;47.200;9.748;2023-06-22T11:46:39;14.32;;;6.05;;
49175;SDS011;35012;47.200;9.748;2023-06-22T11:49:05;11.95;;;6.35;;
49175;SDS011;35012;47.200;9.748;2023-06-22T11:51:30;13.57;;;6.78;;
49175;SDS011;35012;47.200;9.748;2023-06-22T11:53:56;14.02;;;6.22;;
49175;SDS011;35012;47.200;9.748;2023-06-22T11:56:22;13.30;;;6.53;;
49175;SDS011;35012;47.200;9.748;2023-06-22T11:58:47;10.75;;;5.97;;
49175;SDS011;35012;47.200;9.748;2023-06-22T12:01:13;13.48;;;6.43;;
49175;SDS011;35012;47.200;9.748;2023-06-22T12:03:40;11.65;;;6.30;;
49175;SDS011;35012;47.200;9.748;2023-06-22T12:06:06;10.30;;;6.18;;
49175;SDS011;35012;47.200;9.748;2023-06-22T12:08:31;11.70;;;5.93;;
49175;SDS011;35012;47.200;9.748;2023-06-22T12:10:57;11.13;;;6.20;;
49175;SDS011;35012;47.200;9.748;2023-06-22T12:13:22;13.43;;;6.65;;
49175;SDS011;35012;47.200;9.748;2023-06-22T12:15:48;10.93;;;6.22;;
49175;SDS011;35012;47.200;9.748;2023-06-22T12:18:13;10.98;;;6.28;;
49175;SDS011;35012;47.200;9.748;2023-06-22T12:20:40;10.43;;;5.95;;
49175;SDS011;35012;47.200;9.748;2023-06-22T12:23:05;17.40;;;6.90;;
49175;SDS011;35012;47.200;9.748;2023-06-22T12:25:31;14.40;;;6.70;;
49175;SDS011;35012;47.200;9.748;2023-06-22T12:27:56;12.40;;;6.93;;
49175;SDS011;35012;47.200;9.748;2023-06-22T12:30:22;10.82;;;6.53;;
49175;SDS011;35012;47.200;9.748;2023-06-22T12:32:48;11.00;;;6.05;;
49175;SDS011;35012;47.200;9.748;2023-06-22T12:35:14;13.60;;;6.63;;
49175;SDS011;35012;47.200;9.748;2023-06-22T12:37:43;14.88;;;7.10;;
49175;SDS011;35012;47.200;9.748;2023-06-22T12:40:09;13.45;;;6.55;;
49175;SDS011;35012;47.200;9.748;2023-06-22T12:42:35;15.73;;;7.10;;
49175;SDS011;35012;47.200;9.748;2023-06-22T12:45:01;17.30;;;7.22;;
49175;SDS011;35012;47.200;9.748;2023-06-22T12:47:26;12.75;;;7.18;;
49175;SDS011;35012;47.200;9.748;2023-06-22T12:49:52;13.60;;;7.15;;
49175;SDS011;35012;47.200;9.748;2023-06-22T12:52:17;12.75;;;6.70;;
49175;SDS011;35012;47.200;9.748;2023-06-22T12:54:43;11.25;;;6.78;;
49175;SDS011;35012;47.200;9.748;2023-06-22T12:57:09;10.70;;;6.88;;
49175;SDS011;35012;47.200;9.748;2023-06-22T12:59:34;11.60;;;7.03;;
49175;SDS011;35012;47.200;9.748;2023-06-22T13:02:00;13.68;;;6.88;;
49175;SDS011;35012;47.200;9.748;2023-06-22T13:04:25;12.15;;;7.10;;
49175;SDS011;35012;47.200;9.748;2023-06-22T13:06:51;12.93;;;7.00;;
49175;SDS011;35012;47.200;9.748;2023-06-22T13:09:17;14.57;;;6.25;;
49175;SDS011;35012;47.200;9.748;2023-06-22T13:11:43;13.32;;;7.63;;
49175;SDS011;35012;47.200;9.748;2023-06-22T13:14:09;13.65;;;7.15;;
49175;SDS011;35012;47.200;9.748;2023-06-22T13:16:35;13.82;;;7.10;;
49175;SDS011;35012;47.200;9.748;2023-06-22T13:19:01;13.05;;;6.35;;
49175;SDS011;35012;47.200;9.748;2023-06-22T13:21:27;13.52;;;6.53;;
49175;SDS011;35012;47.200;9.748;2023-06-22T13:23:52;13.48;;;7.70;;
49175;SDS011;35012;47.200;9.748;2023-06-22T13:26:18;12.98;;;7.32;;
49175;SDS011;35012;47.200;9.748;2023-06-22T13:28:43;14.05;;;7.30;;
49175;SDS011;35012;47.200;9.748;2023-06-22T13:31:09;15.20;;;7.38;;
49175;SDS011;35012;47.200;9.748;2023-06-22T13:33:35;13.88;;;6.90;;
49175;SDS011;35012;47.200;9.748;2023-06-22T13:36:00;14.50;;;7.55;;
49175;SDS011;35012;47.200;9.748;2023-06-22T13:38:28;11.52;;;7.07;;
49175;SDS011;35012;47.200;9.748;2023-06-22T13:40:54;11.82;;;6.50;;
49175;SDS011;35012;47.200;9.748;2023-06-22T13:43:22;14.02;;;7.32;;
49175;SDS011;35012;47.200;9.748;2023-06-22T13:45:48;13.52;;;7.15;;
49175;SDS011;35012;47.200;9.748;2023-06-22T13:48:14;17.73;;;7.53;;
49175;SDS011;35012;47.200;9.748;2023-06-22T13:50:40;10.45;;;7.00;;
49175;SDS011;35012;47.200;9.748;2023-06-22T13:53:05;12.10;;;7.25;;
49175;SDS011;35012;47.200;9.748;2023-06-22T13:55:31;21.00;;;7.97;;
49175;SDS011;35012;47.200;9.748;2023-06-22T13:57:56;11.25;;;6.28;;
49175;SDS011;35012;47.200;9.748;2023-06-22T14:00:22;12.88;;;7.10;;
49175;SDS011;35012;47.200;9.748;2023-06-22T14:02:48;11.60;;;7.22;;
49175;SDS011;35012;47.200;9.748;2023-06-22T14:05:14;20.02;;;7.35;;
49175;SDS011;35012;47.200;9.748;2023-06-22T14:07:39;13.25;;;6.57;;
49175;SDS011;35012;47.200;9.748;2023-06-22T14:10:05;12.57;;;6.25;;
49175;SDS011;35012;47.200;9.748;2023-06-22T14:12:31;12.55;;;6.65;;
49175;SDS011;35012;47.200;9.748;2023-06-22T14:14:56;16.38;;;6.80;;
49175;SDS011;35012;47.200;9.748;2023-06-22T14:17:22;20.85;;;6.70;;
49175;SDS011;35012;47.200;9.748;2023-06-22T14:19:51;17.98;;;6.85;;
49175;SDS011;35012;47.200;9.748;2023-06-22T14:22:20;14.63;;;6.35;;
49175;SDS011;35012;47.200;9.748;2023-06-22T14:24:47;13.73;;;5.90;;
49175;SDS011;35012;47.200;9.748;2023-06-22T14:27:13;15.35;;;5.40;;
49175;SDS011;35012;47.200;9.748;2023-06-22T14:29:38;12.60;;;5.80;;
49175;SDS011;35012;47.200;9.748;2023-06-22T14:32:04;16.58;;;6.10;;
49175;SDS011;35012;47.200;9.748;2023-06-22T14:34:31;11.15;;;5.93;;
49175;SDS011;35012;47.200;9.748;2023-06-22T14:36:58;12.68;;;5.68;;
49175;SDS011;35012;47.200;9.748;2023-06-22T14:39:23;11.38;;;5.60;;
49175;SDS011;35012;47.200;9.748;2023-06-22T14:41:49;13.20;;;6.28;;